Pearl Of Scandinavia — OWFU2 — position and weather

sailwx.info

Track history (hours):
 
Tides and Currents Weather Stations Pressure Air Temp Water Temp Dewpoint Dewpoint Depression Visibility Wind Speed Wind Dir Waves Ship Positions

Pearl Of Scandinavia

Last reported at 2015-Sep-01 17:34 UTC. Time now 2015-Sep-01 18:08 UTC.
Position N 59°10' E 010°38'.

Length 176.4 m; beam 34 m; draft 6.215 m.

Type: Ship. MMSI: 219945000.

Date/timePositionNaut miles runAvg speedWind from/ knotsBaromVisibWave heightAir tempDewpointWater temp
2015-Sep-01 17:34N 59°10' E 010°38'1817.6
2015-Sep-01 16:33N 59°27' E 010°33'1815.0
2015-Sep-01 15:21N 59°45' E 010°33'9 1.1
2015-Sep-01 07:22N 59°53' E 010°41'1213.3
2015-Sep-01 06:25N 59°41' E 010°36'1214.3
2015-Sep-01 05:33N 59°29' E 010°35'1515.4
2015-Sep-01 04:33N 59°14' E 010°39'1616.2
2015-Sep-01 03:33N 58°57' E 010°42'1515.4
2015-Sep-01 02:33N 58°42' E 010°45'1616.0
2015-Sep-01 01:33N 58°27' E 010°54'1717.5
2015-Sep-01 00:33N 58°10' E 011°03'1817.6
2015-Aug-31 23:33N 57°53' E 011°13'1716.6
2015-Aug-31 22:33N 57°37' E 011°22'1616.3
2015-Aug-31 21:33N 57°22' E 011°30'1716.3
2015-Aug-31 20:32N 57°06' E 011°41'1616.4
2015-Aug-31 19:33N 56°51' E 011°51'1616.0
2015-Aug-31 18:33N 56°35' E 011°59'3316.7
2015-Aug-31 16:33N 56°08' E 012°32'1616.0
2015-Aug-31 15:33N 55°53' E 012°44'1211.9
2015-Aug-31 14:33N 55°42' E 012°36'0 0.0
2015-Aug-31 13:32N 55°42' E 012°36'0 0.0
2015-Aug-31 12:32N 55°42' E 012°36'7 6.7
2015-Aug-31 11:33N 55°48' E 012°42'8 7.8
2015-Aug-31 10:33N 55°56' E 012°43'1010.4
2015-Aug-31 09:33N 55°45' E 012°41'4 4.3
2015-Aug-31 08:33N 55°42' E 012°36'0 0.3
2015-Aug-31 07:33N 55°42' E 012°36'1211.8
2015-Aug-31 06:34N 55°54' E 012°39'1514.6
2015-Aug-31 05:33N 56°08' E 012°30'1615.7
2015-Aug-31 04:33N 56°22' E 012°21'1515.5
2015-Aug-31 03:34N 56°38' E 012°15'1615.7
2015-Aug-31 02:33N 56°53' E 012°09'1616.0
2015-Aug-31 01:33N 57°08' E 011°57'1817.0
2015-Aug-31 00:31N 57°23' E 011°41'1717.1
2015-Aug-30 23:33N 57°38' E 011°27'1717.2
2015-Aug-30 22:33N 57°53' E 011°14'1616.5
2015-Aug-30 21:33N 58°09' E 011°05'1615.9
2015-Aug-30 20:34N 58°24' E 010°56'1515.4
2015-Aug-30 19:33N 58°39' E 010°48'1615.6
2015-Aug-30 18:33N 58°55' E 010°43'1616.5
2015-Aug-30 17:33N 59°11' E 010°38'1616.5
2015-Aug-30 16:33N 59°27' E 010°33'1814.2
2015-Aug-30 15:16N 59°45' E 010°33'9 1.1
2015-Aug-30 07:20N 59°54' E 010°41'1313.3
2015-Aug-30 06:22N 59°41' E 010°37'1214.8
2015-Aug-30 05:33N 59°29' E 010°35'1616.2
2015-Aug-30 04:33N 59°13' E 010°38'1616.0
2015-Aug-30 03:33N 58°57' E 010°42'1515.4
2015-Aug-30 02:33N 58°42' E 010°45'1616.1
2015-Aug-30 01:33N 58°26' E 010°55'1716.6
2015-Aug-30 00:33N 58°11' E 011°04'1717.0
2015-Aug-29 23:33N 57°54' E 011°14'1615.7
2015-Aug-29 22:33N 57°39' E 011°23'1616.1
2015-Aug-29 21:33N 57°24' E 011°32'1616.0
2015-Aug-29 20:33N 57°09' E 011°41'1616.2
2015-Aug-29 19:33N 56°53' E 011°51'1616.0
2015-Aug-29 18:33N 56°38' E 011°59'1716.5
2015-Aug-29 17:33N 56°23' E 012°12'1716.8
2015-Aug-29 16:33N 56°10' E 012°30'1515.2
2015-Aug-29 15:33N 55°56' E 012°43'1413.8
2015-Aug-29 14:33N 55°43' E 012°38'1 1.3
2015-Aug-29 13:31N 55°42' E 012°36'0 0.0
2015-Aug-29 12:31N 55°42' E 012°36'0 0.0
2015-Aug-29 11:31N 55°42' E 012°36'0 0.0
2015-Aug-29 10:31N 55°42' E 012°36'0 0.0
2015-Aug-29 09:31N 55°42' E 012°36'0 0.0
2015-Aug-29 08:29N 55°42' E 012°36'0 0.4
2015-Aug-29 07:33N 55°42' E 012°36'1212.2
2015-Aug-29 06:33N 55°54' E 012°39'1514.8
2015-Aug-29 05:34N 56°08' E 012°30'1616.2
2015-Aug-29 04:33N 56°24' E 012°21'1616.4
2015-Aug-29 03:33N 56°40' E 012°14'1717.0
2015-Aug-29 02:33N 56°56' E 012°06'1716.8
2015-Aug-29 01:33N 57°12' E 011°54'1717.1
2015-Aug-29 00:34N 57°26' E 011°37'1817.7
2015-Aug-28 23:33N 57°42' E 011°23'1717.1
2015-Aug-28 22:34N 57°57' E 011°09'1616.4
2015-Aug-28 21:34N 58°12' E 010°56'1716.6
2015-Aug-28 20:33N 58°27' E 010°42'1615.6
2015-Aug-28 19:34N 58°41' E 010°30'1514.6
2015-Aug-28 18:33N 58°55' E 010°38'1515.1
2015-Aug-28 17:33N 59°11' E 010°38'1716.9
2015-Aug-28 16:34N 59°27' E 010°33'27 2.9
2015-Aug-28 07:22N 59°54' E 010°41'1713.2
2015-Aug-28 06:05N 59°37' E 010°38'814.5
2015-Aug-28 05:34N 59°29' E 010°35'1615.8
2015-Aug-28 04:33N 59°13' E 010°38'1616.1
2015-Aug-28 03:33N 58°57' E 010°43'1615.7
2015-Aug-28 02:33N 58°42' E 010°47'1615.6
2015-Aug-28 01:33N 58°27' E 010°54'1717.0
2015-Aug-28 00:34N 58°11' E 011°04'1716.8
2015-Aug-27 23:33N 57°55' E 011°14'1616.1
2015-Aug-27 22:34N 57°39' E 011°23'1615.7
2015-Aug-27 21:33N 57°24' E 011°32'5216.1
2015-Aug-27 18:18N 56°34' E 011°59'1215.9
2015-Aug-27 17:33N 56°24' E 012°11'1716.7
2015-Aug-27 16:32N 56°10' E 012°29'1616.1
2015-Aug-27 15:33N 55°57' E 012°43'1414.4
2015-Aug-27 14:33N 55°43' E 012°37'1 0.9
2015-Aug-27 13:32N 55°42' E 012°36'0 0.0
2015-Aug-27 12:34N 55°42' E 012°36'7 7.2
2015-Aug-27 11:33N 55°48' E 012°42'8 8.0
2015-Aug-27 10:34N 55°56' E 012°43'1010.5
2015-Aug-27 09:33N 55°46' E 012°41'5 4.8
2015-Aug-27 08:33N 55°42' E 012°36'0 0.2
2015-Aug-27 07:33N 55°42' E 012°36'1211.6
2015-Aug-27 06:34N 55°54' E 012°40'1515.3
2015-Aug-27 05:34N 56°08' E 012°30'1716.8
2015-Aug-27 04:33N 56°24' E 012°21'1818.3
2015-Aug-27 03:33N 56°42' E 012°14'1818.3
2015-Aug-27 02:33N 56°59' E 012°04'1818.0
2015-Aug-27 01:33N 57°16' E 011°50'1717.2
2015-Aug-27 00:34N 57°30' E 011°32'1817.5
2015-Aug-26 23:34N 57°46' E 011°19'1616.0
2015-Aug-26 22:34N 58°01' E 011°10'1615.7
2015-Aug-26 21:33N 58°16' E 011°02'1615.6
2015-Aug-26 20:34N 58°31' E 010°53'1616.4
2015-Aug-26 19:33N 58°47' E 010°46'1615.7
2015-Aug-26 18:34N 59°03' E 010°41'1514.7
2015-Aug-26 17:33N 59°17' E 010°36'9 8.8
2015-Aug-26 16:33N 59°26' E 010°33'1514.8
2015-Aug-26 15:33N 59°41' E 010°37'13 1.6
2015-Aug-26 07:17N 59°53' E 010°41'2614.9
2015-Aug-26 05:34N 59°28' E 010°34'1717.3
2015-Aug-26 04:33N 59°11' E 010°39'1716.5
2015-Aug-26 03:33N 58°54' E 010°43'1515.5
2015-Aug-26 02:34N 58°39' E 010°47'1615.7
2015-Aug-26 01:33N 58°24' E 010°56'1616.5
2015-Aug-26 00:33N 58°09' E 011°07'1616.4
2015-Aug-25 23:33N 57°53' E 011°15'1616.1
2015-Aug-25 22:33N 57°38' E 011°24'1716.6
2015-Aug-25 21:33N 57°22' E 011°33'1716.6
2015-Aug-25 20:33N 57°06' E 011°42'1716.5
2015-Aug-25 19:33N 56°50' E 011°52'1616.2
2015-Aug-25 18:33N 56°35' E 011°59'3316.4
2015-Aug-25 16:33N 56°07' E 012°33'1616.0
2015-Aug-25 15:33N 55°53' E 012°44'1211.4
2015-Aug-25 14:32N 55°42' E 012°36'0 0.0
2015-Aug-25 13:32N 55°42' E 012°36'0 0.0
2015-Aug-25 12:32N 55°42' E 012°36'0 0.0
2015-Aug-25 11:32N 55°42' E 012°36'0 0.0
2015-Aug-25 10:32N 55°42' E 012°36'0 0.0
2015-Aug-25 09:32N 55°42' E 012°36'0 0.0
2015-Aug-25 08:32N 55°42' E 012°36'0 0.3
2015-Aug-25 07:33N 55°42' E 012°36'1211.6
2015-Aug-25 06:34N 55°54' E 012°40'1413.5
2015-Aug-25 05:34N 56°07' E 012°32'1514.8
2015-Aug-25 04:34N 56°20' E 012°22'1515.1
2015-Aug-25 03:33N 56°35' E 012°16'1615.6
2015-Aug-25 02:33N 56°50' E 012°09'1615.8
2015-Aug-25 01:33N 57°05' E 011°59'1616.3
2015-Aug-25 00:33N 57°20' E 011°46'1616.3
2015-Aug-24 23:33N 57°34' E 011°30'1616.3
2015-Aug-24 22:33N 57°49' E 011°18'1616.4
2015-Aug-24 21:33N 58°04' E 011°08'1616.1
2015-Aug-24 20:33N 58°19' E 010°58'1616.4
2015-Aug-24 19:33N 58°35' E 010°51'1717.0
2015-Aug-24 18:33N 58°52' E 010°44'1717.1
2015-Aug-24 17:33N 59°09' E 010°39'1717.3
2015-Aug-24 16:33N 59°26' E 010°33'2016.0
2015-Aug-24 15:20N 59°45' E 010°33'9 1.1
2015-Aug-24 07:22N 59°54' E 010°41'2614.3
2015-Aug-24 05:34N 59°28' E 010°34'1616.3
2015-Aug-24 04:33N 59°12' E 010°39'1616.2
2015-Aug-24 03:33N 58°56' E 010°36'1615.7
2015-Aug-24 02:33N 58°40' E 010°33'1916.3
2015-Aug-24 01:25N 58°22' E 010°44'1416.6
2015-Aug-24 00:33N 58°08' E 010°51'1616.2
2015-Aug-23 23:33N 57°53' E 011°02'1616.3
2015-Aug-23 22:34N 57°38' E 011°14'1616.1
2015-Aug-23 21:33N 57°24' E 011°29'1616.3
2015-Aug-23 20:33N 57°09' E 011°40'1616.0
2015-Aug-23 19:33N 56°54' E 011°51'1616.2
2015-Aug-23 18:33N 56°40' E 012°05'1616.1
2015-Aug-23 17:33N 56°26' E 012°18'1616.4
2015-Aug-23 16:33N 56°11' E 012°30'1616.4
2015-Aug-23 15:34N 55°56' E 012°43'1413.9
2015-Aug-23 14:33N 55°43' E 012°37'1 0.9
2015-Aug-23 13:31N 55°42' E 012°36'0 0.0
2015-Aug-23 12:31N 55°42' E 012°36'0 0.0
2015-Aug-23 11:31N 55°42' E 012°36'0 0.0
2015-Aug-23 10:34N 55°42' E 012°36'0 0.0
2015-Aug-23 09:28N 55°42' E 012°36'0 0.0
2015-Aug-23 08:34N 55°42' E 012°36'0 0.2
2015-Aug-23 07:33N 55°42' E 012°36'1211.7
2015-Aug-23 06:34N 55°54' E 012°40'1413.8
2015-Aug-23 05:34N 56°07' E 012°32'1514.7
2015-Aug-23 04:34N 56°21' E 012°22'1615.7
2015-Aug-23 03:33N 56°36' E 012°16'1615.9
2015-Aug-23 02:33N 56°51' E 012°10'1616.1
2015-Aug-23 01:33N 57°06' E 011°58'1615.9
2015-Aug-23 00:34N 57°20' E 011°45'1616.4
2015-Aug-22 23:33N 57°35' E 011°29'1717.1
2015-Aug-22 22:33N 57°50' E 011°16'1716.6
2015-Aug-22 21:33N 58°06' E 011°08'1616.3
2015-Aug-22 20:34N 58°22' E 010°59'1616.5
2015-Aug-22 19:33N 58°37' E 010°50'1716.9
2015-Aug-22 18:33N 58°54' E 010°43'  
Track history (hours):
 
Tides and Currents Weather Stations Pressure Air Temp Water Temp Dewpoint Dewpoint Depression Visibility Wind Speed Wind Dir Waves Ship Positions

Pearl Of Scandinavia

Last reported at 2015-Sep-01 17:34 UTC. Time now 2015-Sep-01 18:08 UTC.
Position N 59°10' E 010°38'.

Length 176.4 m; beam 34 m; draft 6.215 m.

Type: Ship. MMSI: 219945000.

Date/timePositionNaut miles runAvg speedWind from/ knotsBaromVisibWave heightAir tempDewpointWater temp
2015-Sep-01 17:34N 59°10' E 010°38'1817.6
2015-Sep-01 16:33N 59°27' E 010°33'1815.0
2015-Sep-01 15:21N 59°45' E 010°33'9 1.1
2015-Sep-01 07:22N 59°53' E 010°41'1213.3
2015-Sep-01 06:25N 59°41' E 010°36'1214.3
2015-Sep-01 05:33N 59°29' E 010°35'1515.4
2015-Sep-01 04:33N 59°14' E 010°39'1616.2
2015-Sep-01 03:33N 58°57' E 010°42'1515.4
2015-Sep-01 02:33N 58°42' E 010°45'1616.0
2015-Sep-01 01:33N 58°27' E 010°54'1717.5
2015-Sep-01 00:33N 58°10' E 011°03'1817.6
2015-Aug-31 23:33N 57°53' E 011°13'1716.6
2015-Aug-31 22:33N 57°37' E 011°22'1616.3
2015-Aug-31 21:33N 57°22' E 011°30'1716.3
2015-Aug-31 20:32N 57°06' E 011°41'1616.4
2015-Aug-31 19:33N 56°51' E 011°51'1616.0
2015-Aug-31 18:33N 56°35' E 011°59'3316.7
2015-Aug-31 16:33N 56°08' E 012°32'1616.0
2015-Aug-31 15:33N 55°53' E 012°44'1211.9
2015-Aug-31 14:33N 55°42' E 012°36'0 0.0
2015-Aug-31 13:32N 55°42' E 012°36'0 0.0
2015-Aug-31 12:32N 55°42' E 012°36'7 6.7
2015-Aug-31 11:33N 55°48' E 012°42'8 7.8
2015-Aug-31 10:33N 55°56' E 012°43'1010.4
2015-Aug-31 09:33N 55°45' E 012°41'4 4.3
2015-Aug-31 08:33N 55°42' E 012°36'0 0.3
2015-Aug-31 07:33N 55°42' E 012°36'1211.8
2015-Aug-31 06:34N 55°54' E 012°39'1514.6
2015-Aug-31 05:33N 56°08' E 012°30'1615.7
2015-Aug-31 04:33N 56°22' E 012°21'1515.5
2015-Aug-31 03:34N 56°38' E 012°15'1615.7
2015-Aug-31 02:33N 56°53' E 012°09'1616.0
2015-Aug-31 01:33N 57°08' E 011°57'1817.0
2015-Aug-31 00:31N 57°23' E 011°41'1717.1
2015-Aug-30 23:33N 57°38' E 011°27'1717.2
2015-Aug-30 22:33N 57°53' E 011°14'1616.5
2015-Aug-30 21:33N 58°09' E 011°05'1615.9
2015-Aug-30 20:34N 58°24' E 010°56'1515.4
2015-Aug-30 19:33N 58°39' E 010°48'1615.6
2015-Aug-30 18:33N 58°55' E 010°43'1616.5
2015-Aug-30 17:33N 59°11' E 010°38'1616.5
2015-Aug-30 16:33N 59°27' E 010°33'1814.2
2015-Aug-30 15:16N 59°45' E 010°33'9 1.1
2015-Aug-30 07:20N 59°54' E 010°41'1313.3
2015-Aug-30 06:22N 59°41' E 010°37'1214.8
2015-Aug-30 05:33N 59°29' E 010°35'1616.2
2015-Aug-30 04:33N 59°13' E 010°38'1616.0
2015-Aug-30 03:33N 58°57' E 010°42'1515.4
2015-Aug-30 02:33N 58°42' E 010°45'1616.1
2015-Aug-30 01:33N 58°26' E 010°55'1716.6
2015-Aug-30 00:33N 58°11' E 011°04'1717.0
2015-Aug-29 23:33N 57°54' E 011°14'1615.7
2015-Aug-29 22:33N 57°39' E 011°23'1616.1
2015-Aug-29 21:33N 57°24' E 011°32'1616.0
2015-Aug-29 20:33N 57°09' E 011°41'1616.2
2015-Aug-29 19:33N 56°53' E 011°51'1616.0
2015-Aug-29 18:33N 56°38' E 011°59'1716.5
2015-Aug-29 17:33N 56°23' E 012°12'1716.8
2015-Aug-29 16:33N 56°10' E 012°30'1515.2
2015-Aug-29 15:33N 55°56' E 012°43'1413.8
2015-Aug-29 14:33N 55°43' E 012°38'1 1.3
2015-Aug-29 13:31N 55°42' E 012°36'0 0.0
2015-Aug-29 12:31N 55°42' E 012°36'0 0.0
2015-Aug-29 11:31N 55°42' E 012°36'0 0.0
2015-Aug-29 10:31N 55°42' E 012°36'0 0.0
2015-Aug-29 09:31N 55°42' E 012°36'0 0.0
2015-Aug-29 08:29N 55°42' E 012°36'0 0.4
2015-Aug-29 07:33N 55°42' E 012°36'1212.2
2015-Aug-29 06:33N 55°54' E 012°39'1514.8
2015-Aug-29 05:34N 56°08' E 012°30'1616.2
2015-Aug-29 04:33N 56°24' E 012°21'1616.4
2015-Aug-29 03:33N 56°40' E 012°14'1717.0
2015-Aug-29 02:33N 56°56' E 012°06'1716.8
2015-Aug-29 01:33N 57°12' E 011°54'1717.1
2015-Aug-29 00:34N 57°26' E 011°37'1817.7
2015-Aug-28 23:33N 57°42' E 011°23'1717.1
2015-Aug-28 22:34N 57°57' E 011°09'1616.4
2015-Aug-28 21:34N 58°12' E 010°56'1716.6
2015-Aug-28 20:33N 58°27' E 010°42'1615.6
2015-Aug-28 19:34N 58°41' E 010°30'1514.6
2015-Aug-28 18:33N 58°55' E 010°38'1515.1
2015-Aug-28 17:33N 59°11' E 010°38'1716.9
2015-Aug-28 16:34N 59°27' E 010°33'27 2.9
2015-Aug-28 07:22N 59°54' E 010°41'1713.2
2015-Aug-28 06:05N 59°37' E 010°38'814.5
2015-Aug-28 05:34N 59°29' E 010°35'1615.8
2015-Aug-28 04:33N 59°13' E 010°38'1616.1
2015-Aug-28 03:33N 58°57' E 010°43'1615.7
2015-Aug-28 02:33N 58°42' E 010°47'1615.6
2015-Aug-28 01:33N 58°27' E 010°54'1717.0
2015-Aug-28 00:34N 58°11' E 011°04'1716.8
2015-Aug-27 23:33N 57°55' E 011°14'1616.1
2015-Aug-27 22:34N 57°39' E 011°23'1615.7
2015-Aug-27 21:33N 57°24' E 011°32'5216.1
2015-Aug-27 18:18N 56°34' E 011°59'1215.9
2015-Aug-27 17:33N 56°24' E 012°11'1716.7
2015-Aug-27 16:32N 56°10' E 012°29'1616.1
2015-Aug-27 15:33N 55°57' E 012°43'1414.4
2015-Aug-27 14:33N 55°43' E 012°37'1 0.9
2015-Aug-27 13:32N 55°42' E 012°36'0 0.0
2015-Aug-27 12:34N 55°42' E 012°36'7 7.2
2015-Aug-27 11:33N 55°48' E 012°42'8 8.0
2015-Aug-27 10:34N 55°56' E 012°43'1010.5
2015-Aug-27 09:33N 55°46' E 012°41'5 4.8
2015-Aug-27 08:33N 55°42' E 012°36'0 0.2
2015-Aug-27 07:33N 55°42' E 012°36'1211.6
2015-Aug-27 06:34N 55°54' E 012°40'1515.3
2015-Aug-27 05:34N 56°08' E 012°30'1716.8
2015-Aug-27 04:33N 56°24' E 012°21'1818.3
2015-Aug-27 03:33N 56°42' E 012°14'1818.3
2015-Aug-27 02:33N 56°59' E 012°04'1818.0
2015-Aug-27 01:33N 57°16' E 011°50'1717.2
2015-Aug-27 00:34N 57°30' E 011°32'1817.5
2015-Aug-26 23:34N 57°46' E 011°19'1616.0
2015-Aug-26 22:34N 58°01' E 011°10'1615.7
2015-Aug-26 21:33N 58°16' E 011°02'1615.6
2015-Aug-26 20:34N 58°31' E 010°53'1616.4
2015-Aug-26 19:33N 58°47' E 010°46'1615.7
2015-Aug-26 18:34N 59°03' E 010°41'1514.7
2015-Aug-26 17:33N 59°17' E 010°36'9 8.8
2015-Aug-26 16:33N 59°26' E 010°33'1514.8
2015-Aug-26 15:33N 59°41' E 010°37'13 1.6
2015-Aug-26 07:17N 59°53' E 010°41'2614.9
2015-Aug-26 05:34N 59°28' E 010°34'1717.3
2015-Aug-26 04:33N 59°11' E 010°39'1716.5
2015-Aug-26 03:33N 58°54' E 010°43'1515.5
2015-Aug-26 02:34N 58°39' E 010°47'1615.7
2015-Aug-26 01:33N 58°24' E 010°56'1616.5
2015-Aug-26 00:33N 58°09' E 011°07'1616.4
2015-Aug-25 23:33N 57°53' E 011°15'1616.1
2015-Aug-25 22:33N 57°38' E 011°24'1716.6
2015-Aug-25 21:33N 57°22' E 011°33'1716.6
2015-Aug-25 20:33N 57°06' E 011°42'1716.5
2015-Aug-25 19:33N 56°50' E 011°52'1616.2
2015-Aug-25 18:33N 56°35' E 011°59'3316.4
2015-Aug-25 16:33N 56°07' E 012°33'1616.0
2015-Aug-25 15:33N 55°53' E 012°44'1211.4
2015-Aug-25 14:32N 55°42' E 012°36'0 0.0
2015-Aug-25 13:32N 55°42' E 012°36'0 0.0
2015-Aug-25 12:32N 55°42' E 012°36'0 0.0
2015-Aug-25 11:32N 55°42' E 012°36'0 0.0
2015-Aug-25 10:32N 55°42' E 012°36'0 0.0
2015-Aug-25 09:32N 55°42' E 012°36'0 0.0
2015-Aug-25 08:32N 55°42' E 012°36'0 0.3
2015-Aug-25 07:33N 55°42' E 012°36'1211.6
2015-Aug-25 06:34N 55°54' E 012°40'1413.5
2015-Aug-25 05:34N 56°07' E 012°32'1514.8
2015-Aug-25 04:34N 56°20' E 012°22'1515.1
2015-Aug-25 03:33N 56°35' E 012°16'1615.6
2015-Aug-25 02:33N 56°50' E 012°09'1615.8
2015-Aug-25 01:33N 57°05' E 011°59'1616.3
2015-Aug-25 00:33N 57°20' E 011°46'1616.3
2015-Aug-24 23:33N 57°34' E 011°30'1616.3
2015-Aug-24 22:33N 57°49' E 011°18'1616.4
2015-Aug-24 21:33N 58°04' E 011°08'1616.1
2015-Aug-24 20:33N 58°19' E 010°58'1616.4
2015-Aug-24 19:33N 58°35' E 010°51'1717.0
2015-Aug-24 18:33N 58°52' E 010°44'1717.1
2015-Aug-24 17:33N 59°09' E 010°39'1717.3
2015-Aug-24 16:33N 59°26' E 010°33'2016.0
2015-Aug-24 15:20N 59°45' E 010°33'9 1.1
2015-Aug-24 07:22N 59°54' E 010°41'2614.3
2015-Aug-24 05:34N 59°28' E 010°34'1616.3
2015-Aug-24 04:33N 59°12' E 010°39'1616.2
2015-Aug-24 03:33N 58°56' E 010°36'1615.7
2015-Aug-24 02:33N 58°40' E 010°33'1916.3
2015-Aug-24 01:25N 58°22' E 010°44'1416.6
2015-Aug-24 00:33N 58°08' E 010°51'1616.2
2015-Aug-23 23:33N 57°53' E 011°02'1616.3
2015-Aug-23 22:34N 57°38' E 011°14'1616.1
2015-Aug-23 21:33N 57°24' E 011°29'1616.3
2015-Aug-23 20:33N 57°09' E 011°40'1616.0
2015-Aug-23 19:33N 56°54' E 011°51'1616.2
2015-Aug-23 18:33N 56°40' E 012°05'1616.1
2015-Aug-23 17:33N 56°26' E 012°18'1616.4
2015-Aug-23 16:33N 56°11' E 012°30'1616.4
2015-Aug-23 15:34N 55°56' E 012°43'1413.9
2015-Aug-23 14:33N 55°43' E 012°37'1 0.9
2015-Aug-23 13:31N 55°42' E 012°36'0 0.0
2015-Aug-23 12:31N 55°42' E 012°36'0 0.0
2015-Aug-23 11:31N 55°42' E 012°36'0 0.0
2015-Aug-23 10:34N 55°42' E 012°36'0 0.0
2015-Aug-23 09:28N 55°42' E 012°36'0 0.0
2015-Aug-23 08:34N 55°42' E 012°36'0 0.2
2015-Aug-23 07:33N 55°42' E 012°36'1211.7
2015-Aug-23 06:34N 55°54' E 012°40'1413.8
2015-Aug-23 05:34N 56°07' E 012°32'1514.7
2015-Aug-23 04:34N 56°21' E 012°22'1615.7
2015-Aug-23 03:33N 56°36' E 012°16'1615.9
2015-Aug-23 02:33N 56°51' E 012°10'1616.1
2015-Aug-23 01:33N 57°06' E 011°58'1615.9
2015-Aug-23 00:34N 57°20' E 011°45'1616.4
2015-Aug-22 23:33N 57°35' E 011°29'1717.1
2015-Aug-22 22:33N 57°50' E 011°16'1716.6
2015-Aug-22 21:33N 58°06' E 011°08'1616.3
2015-Aug-22 20:34N 58°22' E 010°59'1616.5
2015-Aug-22 19:33N 58°37' E 010°50'1716.9
2015-Aug-22 18:33N 58°54' E 010°43'  

Dump ship's entire track history